sensor_id;sensor_type;location;lat;lon;timestamp;P1;durP1;ratioP1;P2;durP2;ratioP2
7941;SDS011;4016;50.758;7.150;2022-12-13T00:02:45;9.73;;;6.23;;
7941;SDS011;4016;50.758;7.150;2022-12-13T00:07:46;9.90;;;6.57;;
7941;SDS011;4016;50.758;7.150;2022-12-13T00:12:46;10.60;;;6.70;;
7941;SDS011;4016;50.758;7.150;2022-12-13T00:17:46;12.57;;;8.63;;
7941;SDS011;4016;50.758;7.150;2022-12-13T00:22:47;8.87;;;6.70;;
7941;SDS011;4016;50.758;7.150;2022-12-13T00:27:50;10.00;;;5.70;;
7941;SDS011;4016;50.758;7.150;2022-12-13T00:32:50;12.47;;;7.83;;
7941;SDS011;4016;50.758;7.150;2022-12-13T00:37:50;12.47;;;5.80;;
7941;SDS011;4016;50.758;7.150;2022-12-13T00:42:51;9.17;;;7.17;;
7941;SDS011;4016;50.758;7.150;2022-12-13T00:47:51;11.20;;;8.07;;
7941;SDS011;4016;50.758;7.150;2022-12-13T00:52:52;13.77;;;6.97;;
7941;SDS011;4016;50.758;7.150;2022-12-13T00:57:52;10.03;;;6.93;;
7941;SDS011;4016;50.758;7.150;2022-12-13T01:02:52;9.90;;;6.57;;
7941;SDS011;4016;50.758;7.150;2022-12-13T01:07:53;8.73;;;6.37;;
7941;SDS011;4016;50.758;7.150;2022-12-13T01:12:53;10.17;;;7.53;;
7941;SDS011;4016;50.758;7.150;2022-12-13T01:17:54;12.43;;;7.50;;
7941;SDS011;4016;50.758;7.150;2022-12-13T01:22:54;12.07;;;7.53;;
7941;SDS011;4016;50.758;7.150;2022-12-13T01:27:54;12.47;;;6.13;;
7941;SDS011;4016;50.758;7.150;2022-12-13T01:32:55;10.10;;;6.43;;
7941;SDS011;4016;50.758;7.150;2022-12-13T01:37:55;10.03;;;7.67;;
7941;SDS011;4016;50.758;7.150;2022-12-13T01:42:55;10.30;;;6.87;;
7941;SDS011;4016;50.758;7.150;2022-12-13T01:48:00;7.43;;;6.00;;
7941;SDS011;4016;50.758;7.150;2022-12-13T01:53:04;11.60;;;6.93;;
7941;SDS011;4016;50.758;7.150;2022-12-13T01:58:06;12.27;;;8.73;;
7941;SDS011;4016;50.758;7.150;2022-12-13T02:03:07;9.17;;;6.57;;
7941;SDS011;4016;50.758;7.150;2022-12-13T02:08:09;15.43;;;7.63;;
7941;SDS011;4016;50.758;7.150;2022-12-13T02:13:11;8.97;;;7.27;;
7941;SDS011;4016;50.758;7.150;2022-12-13T02:18:20;9.03;;;7.37;;
7941;SDS011;4016;50.758;7.150;2022-12-13T02:29:08;9.17;;;7.03;;
7941;SDS011;4016;50.758;7.150;2022-12-13T02:34:24;10.23;;;8.30;;
7941;SDS011;4016;50.758;7.150;2022-12-13T02:39:50;11.30;;;8.07;;
7941;SDS011;4016;50.758;7.150;2022-12-13T02:45:02;17.00;;;8.70;;
7941;SDS011;4016;50.758;7.150;2022-12-13T02:50:07;11.53;;;6.97;;
7941;SDS011;4016;50.758;7.150;2022-12-13T02:55:13;12.40;;;8.80;;
7941;SDS011;4016;50.758;7.150;2022-12-13T03:00:15;14.07;;;6.73;;
7941;SDS011;4016;50.758;7.150;2022-12-13T03:11:05;12.30;;;8.13;;
7941;SDS011;4016;50.758;7.150;2022-12-13T03:16:24;14.70;;;8.23;;
7941;SDS011;4016;50.758;7.150;2022-12-13T03:21:38;12.33;;;6.33;;
7941;SDS011;4016;50.758;7.150;2022-12-13T03:26:40;11.67;;;8.37;;
7941;SDS011;4016;50.758;7.150;2022-12-13T03:31:40;21.03;;;10.80;;
7941;SDS011;4016;50.758;7.150;2022-12-13T03:36:41;14.77;;;7.43;;
7941;SDS011;4016;50.758;7.150;2022-12-13T03:41:41;13.73;;;7.50;;
7941;SDS011;4016;50.758;7.150;2022-12-13T03:46:41;12.30;;;8.97;;
7941;SDS011;4016;50.758;7.150;2022-12-13T03:51:42;21.83;;;8.23;;
7941;SDS011;4016;50.758;7.150;2022-12-13T03:56:42;16.73;;;10.47;;
7941;SDS011;4016;50.758;7.150;2022-12-13T04:01:42;14.60;;;10.27;;
7941;SDS011;4016;50.758;7.150;2022-12-13T04:06:43;14.30;;;9.73;;
7941;SDS011;4016;50.758;7.150;2022-12-13T04:11:43;18.80;;;8.47;;
7941;SDS011;4016;50.758;7.150;2022-12-13T04:17:03;15.00;;;8.83;;
7941;SDS011;4016;50.758;7.150;2022-12-13T04:22:03;13.77;;;8.57;;
7941;SDS011;4016;50.758;7.150;2022-12-13T04:27:03;17.93;;;9.40;;
7941;SDS011;4016;50.758;7.150;2022-12-13T04:32:04;12.93;;;8.37;;
7941;SDS011;4016;50.758;7.150;2022-12-13T04:37:04;15.37;;;9.00;;
7941;SDS011;4016;50.758;7.150;2022-12-13T04:42:05;14.23;;;8.77;;
7941;SDS011;4016;50.758;7.150;2022-12-13T04:47:05;12.00;;;8.53;;
7941;SDS011;4016;50.758;7.150;2022-12-13T04:52:05;12.13;;;8.27;;
7941;SDS011;4016;50.758;7.150;2022-12-13T04:57:06;15.77;;;9.83;;
7941;SDS011;4016;50.758;7.150;2022-12-13T05:02:09;15.13;;;9.80;;
7941;SDS011;4016;50.758;7.150;2022-12-13T05:07:09;9.20;;;7.33;;
7941;SDS011;4016;50.758;7.150;2022-12-13T05:12:09;10.83;;;9.27;;
7941;SDS011;4016;50.758;7.150;2022-12-13T05:17:10;13.03;;;7.33;;
7941;SDS011;4016;50.758;7.150;2022-12-13T05:22:10;15.40;;;8.50;;
7941;SDS011;4016;50.758;7.150;2022-12-13T05:27:14;11.30;;;7.83;;
7941;SDS011;4016;50.758;7.150;2022-12-13T05:32:15;12.43;;;9.10;;
7941;SDS011;4016;50.758;7.150;2022-12-13T05:37:16;11.10;;;6.57;;
7941;SDS011;4016;50.758;7.150;2022-12-13T05:42:16;12.67;;;8.10;;
7941;SDS011;4016;50.758;7.150;2022-12-13T05:47:16;9.57;;;8.07;;
7941;SDS011;4016;50.758;7.150;2022-12-13T05:52:17;10.77;;;8.13;;
7941;SDS011;4016;50.758;7.150;2022-12-13T05:57:19;14.30;;;8.33;;
7941;SDS011;4016;50.758;7.150;2022-12-13T06:02:19;16.17;;;8.13;;
7941;SDS011;4016;50.758;7.150;2022-12-13T06:07:20;10.37;;;7.37;;
7941;SDS011;4016;50.758;7.150;2022-12-13T06:12:20;11.20;;;7.70;;
7941;SDS011;4016;50.758;7.150;2022-12-13T06:17:20;9.80;;;6.53;;
7941;SDS011;4016;50.758;7.150;2022-12-13T06:22:23;9.87;;;7.33;;
7941;SDS011;4016;50.758;7.150;2022-12-13T06:27:23;11.03;;;6.00;;
7941;SDS011;4016;50.758;7.150;2022-12-13T06:32:24;13.20;;;6.90;;
7941;SDS011;4016;50.758;7.150;2022-12-13T06:37:24;10.17;;;7.07;;
7941;SDS011;4016;50.758;7.150;2022-12-13T06:42:24;9.23;;;6.77;;
7941;SDS011;4016;50.758;7.150;2022-12-13T06:47:25;17.40;;;8.10;;
7941;SDS011;4016;50.758;7.150;2022-12-13T06:52:26;18.53;;;7.87;;
7941;SDS011;4016;50.758;7.150;2022-12-13T06:57:26;9.07;;;7.70;;
7941;SDS011;4016;50.758;7.150;2022-12-13T07:02:27;12.20;;;7.10;;
7941;SDS011;4016;50.758;7.150;2022-12-13T07:07:27;14.00;;;8.97;;
7941;SDS011;4016;50.758;7.150;2022-12-13T07:12:28;15.77;;;8.90;;
7941;SDS011;4016;50.758;7.150;2022-12-13T07:17:29;13.27;;;7.00;;
7941;SDS011;4016;50.758;7.150;2022-12-13T07:22:29;14.03;;;8.00;;
7941;SDS011;4016;50.758;7.150;2022-12-13T07:27:30;16.23;;;7.30;;
7941;SDS011;4016;50.758;7.150;2022-12-13T07:32:30;13.03;;;7.93;;
7941;SDS011;4016;50.758;7.150;2022-12-13T07:37:30;13.10;;;8.40;;
7941;SDS011;4016;50.758;7.150;2022-12-13T07:42:31;16.37;;;7.20;;
7941;SDS011;4016;50.758;7.150;2022-12-13T07:47:31;11.43;;;8.43;;
7941;SDS011;4016;50.758;7.150;2022-12-13T07:52:32;10.37;;;7.43;;
7941;SDS011;4016;50.758;7.150;2022-12-13T07:57:32;12.00;;;7.10;;
7941;SDS011;4016;50.758;7.150;2022-12-13T08:02:33;11.20;;;7.27;;
7941;SDS011;4016;50.758;7.150;2022-12-13T08:07:33;10.07;;;7.57;;
7941;SDS011;4016;50.758;7.150;2022-12-13T08:12:34;15.47;;;7.83;;
7941;SDS011;4016;50.758;7.150;2022-12-13T08:17:34;7.97;;;6.87;;
7941;SDS011;4016;50.758;7.150;2022-12-13T08:22:34;14.17;;;7.43;;
7941;SDS011;4016;50.758;7.150;2022-12-13T08:27:35;13.37;;;7.40;;
7941;SDS011;4016;50.758;7.150;2022-12-13T08:32:35;11.73;;;7.63;;
7941;SDS011;4016;50.758;7.150;2022-12-13T08:37:35;14.73;;;7.63;;
7941;SDS011;4016;50.758;7.150;2022-12-13T08:42:36;9.00;;;6.70;;
7941;SDS011;4016;50.758;7.150;2022-12-13T08:47:36;11.70;;;8.43;;
7941;SDS011;4016;50.758;7.150;2022-12-13T08:52:37;14.67;;;7.03;;
7941;SDS011;4016;50.758;7.150;2022-12-13T08:57:37;11.60;;;6.70;;
7941;SDS011;4016;50.758;7.150;2022-12-13T09:02:39;13.33;;;9.03;;
7941;SDS011;4016;50.758;7.150;2022-12-13T09:07:40;10.43;;;7.47;;
7941;SDS011;4016;50.758;7.150;2022-12-13T09:12:41;11.87;;;7.73;;
7941;SDS011;4016;50.758;7.150;2022-12-13T09:17:42;6.60;;;5.43;;
7941;SDS011;4016;50.758;7.150;2022-12-13T09:22:42;9.33;;;7.17;;
7941;SDS011;4016;50.758;7.150;2022-12-13T09:27:43;10.73;;;6.83;;
7941;SDS011;4016;50.758;7.150;2022-12-13T09:32:43;10.57;;;7.33;;
7941;SDS011;4016;50.758;7.150;2022-12-13T09:37:48;15.33;;;7.80;;
7941;SDS011;4016;50.758;7.150;2022-12-13T09:42:49;12.43;;;7.67;;
7941;SDS011;4016;50.758;7.150;2022-12-13T09:47:53;10.53;;;6.93;;
7941;SDS011;4016;50.758;7.150;2022-12-13T09:52:59;14.47;;;8.17;;
7941;SDS011;4016;50.758;7.150;2022-12-13T09:58:05;12.00;;;8.03;;
7941;SDS011;4016;50.758;7.150;2022-12-13T10:03:11;14.70;;;8.57;;
7941;SDS011;4016;50.758;7.150;2022-12-13T10:08:15;14.73;;;9.03;;
7941;SDS011;4016;50.758;7.150;2022-12-13T10:13:23;10.67;;;7.50;;
7941;SDS011;4016;50.758;7.150;2022-12-13T10:18:31;11.77;;;8.07;;
7941;SDS011;4016;50.758;7.150;2022-12-13T10:23:34;11.17;;;7.63;;
7941;SDS011;4016;50.758;7.150;2022-12-13T10:28:35;14.87;;;8.43;;
7941;SDS011;4016;50.758;7.150;2022-12-13T10:33:36;11.23;;;7.07;;
7941;SDS011;4016;50.758;7.150;2022-12-13T10:38:40;11.40;;;7.63;;
7941;SDS011;4016;50.758;7.150;2022-12-13T10:43:42;11.50;;;6.93;;
7941;SDS011;4016;50.758;7.150;2022-12-13T10:48:47;8.50;;;6.97;;
7941;SDS011;4016;50.758;7.150;2022-12-13T10:53:50;11.20;;;7.57;;
7941;SDS011;4016;50.758;7.150;2022-12-13T10:59:10;8.23;;;6.60;;
7941;SDS011;4016;50.758;7.150;2022-12-13T11:04:27;10.23;;;6.67;;
7941;SDS011;4016;50.758;7.150;2022-12-13T11:09:34;9.00;;;6.30;;
7941;SDS011;4016;50.758;7.150;2022-12-13T11:14:35;9.93;;;6.43;;
7941;SDS011;4016;50.758;7.150;2022-12-13T11:19:47;8.70;;;5.87;;
7941;SDS011;4016;50.758;7.150;2022-12-13T11:24:51;8.47;;;6.03;;
7941;SDS011;4016;50.758;7.150;2022-12-13T11:40:28;11.57;;;7.17;;
7941;SDS011;4016;50.758;7.150;2022-12-13T11:45:33;10.43;;;6.67;;
7941;SDS011;4016;50.758;7.150;2022-12-13T11:50:48;10.50;;;6.77;;
7941;SDS011;4016;50.758;7.150;2022-12-13T11:55:53;9.70;;;6.23;;
7941;SDS011;4016;50.758;7.150;2022-12-13T12:01:11;15.90;;;7.50;;
7941;SDS011;4016;50.758;7.150;2022-12-13T12:06:56;11.07;;;6.47;;
7941;SDS011;4016;50.758;7.150;2022-12-13T12:12:16;10.00;;;7.00;;
7941;SDS011;4016;50.758;7.150;2022-12-13T12:17:23;9.90;;;6.87;;
7941;SDS011;4016;50.758;7.150;2022-12-13T12:38:59;8.73;;;5.93;;
7941;SDS011;4016;50.758;7.150;2022-12-13T12:55:10;7.87;;;5.03;;
7941;SDS011;4016;50.758;7.150;2022-12-13T13:00:27;10.30;;;6.37;;
7941;SDS011;4016;50.758;7.150;2022-12-13T13:11:02;7.60;;;5.20;;
7941;SDS011;4016;50.758;7.150;2022-12-13T13:16:04;9.33;;;6.13;;
7941;SDS011;4016;50.758;7.150;2022-12-13T13:21:23;7.50;;;5.77;;
7941;SDS011;4016;50.758;7.150;2022-12-13T13:26:30;9.93;;;5.80;;
7941;SDS011;4016;50.758;7.150;2022-12-13T13:31:52;7.63;;;5.37;;
7941;SDS011;4016;50.758;7.150;2022-12-13T13:36:55;9.63;;;5.50;;
7941;SDS011;4016;50.758;7.150;2022-12-13T13:47:15;9.43;;;5.20;;
7941;SDS011;4016;50.758;7.150;2022-12-13T13:52:19;9.17;;;5.23;;
7941;SDS011;4016;50.758;7.150;2022-12-13T13:57:37;6.80;;;5.00;;
7941;SDS011;4016;50.758;7.150;2022-12-13T14:29:55;6.53;;;4.67;;
7941;SDS011;4016;50.758;7.150;2022-12-13T14:34:57;9.50;;;5.93;;
7941;SDS011;4016;50.758;7.150;2022-12-13T14:39:59;9.10;;;6.03;;
7941;SDS011;4016;50.758;7.150;2022-12-13T14:45:13;7.87;;;5.43;;
7941;SDS011;4016;50.758;7.150;2022-12-13T14:50:16;9.40;;;5.30;;
7941;SDS011;4016;50.758;7.150;2022-12-13T14:55:35;10.33;;;5.30;;
7941;SDS011;4016;50.758;7.150;2022-12-13T15:00:38;9.77;;;5.97;;
7941;SDS011;4016;50.758;7.150;2022-12-13T15:05:40;9.90;;;6.40;;
7941;SDS011;4016;50.758;7.150;2022-12-13T15:10:43;8.70;;;5.70;;
7941;SDS011;4016;50.758;7.150;2022-12-13T15:15:49;9.67;;;5.97;;
7941;SDS011;4016;50.758;7.150;2022-12-13T15:20:54;7.90;;;5.53;;
7941;SDS011;4016;50.758;7.150;2022-12-13T15:26:17;9.20;;;5.80;;
7941;SDS011;4016;50.758;7.150;2022-12-13T15:31:21;9.20;;;5.93;;
7941;SDS011;4016;50.758;7.150;2022-12-13T15:36:26;8.23;;;5.03;;
7941;SDS011;4016;50.758;7.150;2022-12-13T15:41:34;9.13;;;6.03;;
7941;SDS011;4016;50.758;7.150;2022-12-13T15:46:42;11.00;;;5.77;;
7941;SDS011;4016;50.758;7.150;2022-12-13T15:51:57;8.53;;;6.43;;
7941;SDS011;4016;50.758;7.150;2022-12-13T16:07:26;7.73;;;5.40;;
7941;SDS011;4016;50.758;7.150;2022-12-13T16:12:36;9.87;;;6.27;;
7941;SDS011;4016;50.758;7.150;2022-12-13T16:17:40;11.90;;;10.57;;
7941;SDS011;4016;50.758;7.150;2022-12-13T16:22:41;9.17;;;6.30;;
7941;SDS011;4016;50.758;7.150;2022-12-13T16:27:42;11.60;;;6.57;;
7941;SDS011;4016;50.758;7.150;2022-12-13T16:32:43;8.03;;;6.00;;
7941;SDS011;4016;50.758;7.150;2022-12-13T16:37:44;8.70;;;5.90;;
7941;SDS011;4016;50.758;7.150;2022-12-13T16:42:44;9.13;;;5.87;;
7941;SDS011;4016;50.758;7.150;2022-12-13T16:47:45;8.03;;;5.70;;
7941;SDS011;4016;50.758;7.150;2022-12-13T16:52:47;6.47;;;4.63;;
7941;SDS011;4016;50.758;7.150;2022-12-13T16:57:54;10.90;;;6.33;;
7941;SDS011;4016;50.758;7.150;2022-12-13T17:02:56;7.93;;;5.47;;
7941;SDS011;4016;50.758;7.150;2022-12-13T17:07:58;9.13;;;5.87;;
7941;SDS011;4016;50.758;7.150;2022-12-13T17:12:59;8.60;;;5.40;;
7941;SDS011;4016;50.758;7.150;2022-12-13T17:17:59;8.33;;;6.30;;
7941;SDS011;4016;50.758;7.150;2022-12-13T17:23:00;7.57;;;5.23;;
7941;SDS011;4016;50.758;7.150;2022-12-13T17:28:01;8.07;;;5.67;;
7941;SDS011;4016;50.758;7.150;2022-12-13T17:33:03;9.37;;;5.60;;
7941;SDS011;4016;50.758;7.150;2022-12-13T17:38:07;6.37;;;4.93;;
7941;SDS011;4016;50.758;7.150;2022-12-13T17:43:07;8.50;;;5.93;;
7941;SDS011;4016;50.758;7.150;2022-12-13T17:48:08;8.73;;;5.67;;
7941;SDS011;4016;50.758;7.150;2022-12-13T17:53:08;6.43;;;5.83;;
7941;SDS011;4016;50.758;7.150;2022-12-13T17:58:09;9.13;;;5.47;;
7941;SDS011;4016;50.758;7.150;2022-12-13T18:03:09;7.90;;;6.07;;
7941;SDS011;4016;50.758;7.150;2022-12-13T18:08:10;8.37;;;5.87;;
7941;SDS011;4016;50.758;7.150;2022-12-13T18:13:10;10.50;;;6.23;;
7941;SDS011;4016;50.758;7.150;2022-12-13T18:18:11;8.77;;;5.63;;
7941;SDS011;4016;50.758;7.150;2022-12-13T18:23:11;5.27;;;4.47;;
7941;SDS011;4016;50.758;7.150;2022-12-13T18:28:12;6.43;;;4.97;;
7941;SDS011;4016;50.758;7.150;2022-12-13T18:33:13;8.43;;;5.67;;
7941;SDS011;4016;50.758;7.150;2022-12-13T18:38:13;9.60;;;6.47;;
7941;SDS011;4016;50.758;7.150;2022-12-13T18:43:13;5.23;;;4.50;;
7941;SDS011;4016;50.758;7.150;2022-12-13T18:48:14;6.87;;;4.97;;
7941;SDS011;4016;50.758;7.150;2022-12-13T18:53:15;5.93;;;4.53;;
7941;SDS011;4016;50.758;7.150;2022-12-13T18:58:15;6.77;;;5.73;;
7941;SDS011;4016;50.758;7.150;2022-12-13T19:03:15;8.87;;;5.90;;
7941;SDS011;4016;50.758;7.150;2022-12-13T19:08:16;6.87;;;5.63;;
7941;SDS011;4016;50.758;7.150;2022-12-13T19:13:16;10.07;;;6.17;;
7941;SDS011;4016;50.758;7.150;2022-12-13T19:18:16;6.90;;;5.13;;
7941;SDS011;4016;50.758;7.150;2022-12-13T19:23:17;8.20;;;4.90;;
7941;SDS011;4016;50.758;7.150;2022-12-13T19:28:18;9.37;;;6.00;;
7941;SDS011;4016;50.758;7.150;2022-12-13T19:33:19;8.23;;;5.43;;
7941;SDS011;4016;50.758;7.150;2022-12-13T19:38:19;7.53;;;5.60;;
7941;SDS011;4016;50.758;7.150;2022-12-13T19:43:19;6.20;;;4.40;;
7941;SDS011;4016;50.758;7.150;2022-12-13T19:48:20;7.37;;;5.13;;
7941;SDS011;4016;50.758;7.150;2022-12-13T19:53:20;8.93;;;5.47;;
7941;SDS011;4016;50.758;7.150;2022-12-13T19:58:21;8.07;;;5.83;;
7941;SDS011;4016;50.758;7.150;2022-12-13T20:03:22;8.57;;;6.40;;
7941;SDS011;4016;50.758;7.150;2022-12-13T20:08:22;8.97;;;5.30;;
7941;SDS011;4016;50.758;7.150;2022-12-13T20:13:23;7.27;;;5.23;;
7941;SDS011;4016;50.758;7.150;2022-12-13T20:18:24;9.50;;;5.30;;
7941;SDS011;4016;50.758;7.150;2022-12-13T20:23:25;8.67;;;5.67;;
7941;SDS011;4016;50.758;7.150;2022-12-13T20:28:25;6.13;;;4.87;;
7941;SDS011;4016;50.758;7.150;2022-12-13T20:33:25;7.47;;;4.97;;
7941;SDS011;4016;50.758;7.150;2022-12-13T20:38:26;10.57;;;5.97;;
7941;SDS011;4016;50.758;7.150;2022-12-13T20:43:26;7.50;;;4.57;;
7941;SDS011;4016;50.758;7.150;2022-12-13T20:48:28;9.10;;;5.57;;
7941;SDS011;4016;50.758;7.150;2022-12-13T20:53:32;5.83;;;4.60;;
7941;SDS011;4016;50.758;7.150;2022-12-13T20:58:35;13.73;;;6.13;;
7941;SDS011;4016;50.758;7.150;2022-12-13T21:03:36;6.80;;;4.53;;
7941;SDS011;4016;50.758;7.150;2022-12-13T21:08:36;8.07;;;5.00;;
7941;SDS011;4016;50.758;7.150;2022-12-13T21:14:14;6.20;;;4.03;;
7941;SDS011;4016;50.758;7.150;2022-12-13T21:19:23;6.07;;;3.87;;
7941;SDS011;4016;50.758;7.150;2022-12-13T21:24:25;5.03;;;4.37;;
7941;SDS011;4016;50.758;7.150;2022-12-13T21:29:28;5.27;;;4.77;;
7941;SDS011;4016;50.758;7.150;2022-12-13T21:34:28;6.27;;;4.47;;
7941;SDS011;4016;50.758;7.150;2022-12-13T21:39:29;7.83;;;4.90;;
7941;SDS011;4016;50.758;7.150;2022-12-13T21:44:29;5.00;;;4.43;;
7941;SDS011;4016;50.758;7.150;2022-12-13T21:49:30;5.83;;;4.50;;
7941;SDS011;4016;50.758;7.150;2022-12-13T21:54:30;5.37;;;4.33;;
7941;SDS011;4016;50.758;7.150;2022-12-13T21:59:30;6.67;;;4.93;;
7941;SDS011;4016;50.758;7.150;2022-12-13T22:04:31;5.47;;;4.70;;
7941;SDS011;4016;50.758;7.150;2022-12-13T22:09:32;4.93;;;4.53;;
7941;SDS011;4016;50.758;7.150;2022-12-13T22:14:33;6.07;;;4.80;;
7941;SDS011;4016;50.758;7.150;2022-12-13T22:19:34;10.30;;;5.27;;
7941;SDS011;4016;50.758;7.150;2022-12-13T22:24:35;5.07;;;4.57;;
7941;SDS011;4016;50.758;7.150;2022-12-13T22:29:35;5.47;;;4.27;;
7941;SDS011;4016;50.758;7.150;2022-12-13T22:34:36;4.30;;;3.90;;
7941;SDS011;4016;50.758;7.150;2022-12-13T22:39:36;5.83;;;4.23;;
7941;SDS011;4016;50.758;7.150;2022-12-13T22:44:36;8.10;;;4.83;;
7941;SDS011;4016;50.758;7.150;2022-12-13T22:49:37;7.57;;;5.37;;
7941;SDS011;4016;50.758;7.150;2022-12-13T22:54:37;7.30;;;4.63;;
7941;SDS011;4016;50.758;7.150;2022-12-13T22:59:38;6.63;;;5.27;;
7941;SDS011;4016;50.758;7.150;2022-12-13T23:04:38;4.17;;;3.77;;
7941;SDS011;4016;50.758;7.150;2022-12-13T23:09:38;5.73;;;4.47;;
7941;SDS011;4016;50.758;7.150;2022-12-13T23:14:39;5.83;;;4.27;;
7941;SDS011;4016;50.758;7.150;2022-12-13T23:19:39;5.07;;;4.13;;
7941;SDS011;4016;50.758;7.150;2022-12-13T23:24:39;6.43;;;4.63;;
7941;SDS011;4016;50.758;7.150;2022-12-13T23:29:40;5.43;;;4.13;;
7941;SDS011;4016;50.758;7.150;2022-12-13T23:34:40;9.50;;;5.10;;
7941;SDS011;4016;50.758;7.150;2022-12-13T23:39:41;6.03;;;4.90;;
7941;SDS011;4016;50.758;7.150;2022-12-13T23:44:41;9.77;;;5.70;;
7941;SDS011;4016;50.758;7.150;2022-12-13T23:49:41;9.43;;;7.17;;
7941;SDS011;4016;50.758;7.150;2022-12-13T23:54:42;9.43;;;5.93;;
7941;SDS011;4016;50.758;7.150;2022-12-13T23:59:42;8.80;;;5.30;;
